createdAt,value
2022-12-19T00:00:08.485Z,17.85
2022-12-19T00:02:39.278Z,17.27
2022-12-19T00:05:06.861Z,17.60
2022-12-19T00:07:33.738Z,17.65
2022-12-19T00:10:00.913Z,17.77
2022-12-19T00:12:27.871Z,17.58
2022-12-19T00:14:54.689Z,17.75
2022-12-19T00:17:22.053Z,18.00
2022-12-19T00:19:49.196Z,17.42
2022-12-19T00:22:15.962Z,18.55
2022-12-19T00:24:42.796Z,18.63
2022-12-19T00:27:09.823Z,17.63
2022-12-19T00:29:36.797Z,18.23
2022-12-19T00:32:04.410Z,17.20
2022-12-19T00:34:31.279Z,18.17
2022-12-19T00:36:58.029Z,18.13
2022-12-19T00:39:24.868Z,18.05
2022-12-19T00:41:51.711Z,18.30
2022-12-19T00:44:18.562Z,17.90
2022-12-19T00:46:52.944Z,18.08
2022-12-19T00:49:20.940Z,19.02
2022-12-19T00:51:47.780Z,18.67
2022-12-19T00:54:15.058Z,19.88
2022-12-19T00:56:42.015Z,17.58
2022-12-19T00:59:10.862Z,18.70
2022-12-19T01:01:41.333Z,19.05
2022-12-19T01:04:28.283Z,18.88
2022-12-19T01:06:58.876Z,18.70
2022-12-19T01:09:29.339Z,18.38
2022-12-19T01:12:15.047Z,17.40
2022-12-19T01:14:41.893Z,17.98
2022-12-19T01:17:08.728Z,19.85
2022-12-19T01:19:41.916Z,18.10
2022-12-19T01:22:15.010Z,17.58
2022-12-19T01:24:42.175Z,18.58
2022-12-19T01:27:09.352Z,18.33
2022-12-19T01:29:37.646Z,19.02
2022-12-19T01:32:19.484Z,19.38
2022-12-19T01:34:46.669Z,18.95
2022-12-19T01:37:13.581Z,19.65
2022-12-19T01:39:40.468Z,18.77
2022-12-19T01:42:16.229Z,19.23
2022-12-19T01:45:12.117Z,19.67
2022-12-19T01:47:54.963Z,18.75
2022-12-19T01:50:36.147Z,18.58
2022-12-19T01:53:04.033Z,19.38
2022-12-19T01:55:31.359Z,18.25
2022-12-19T01:58:00.478Z,20.02
2022-12-19T02:00:27.450Z,20.70
2022-12-19T02:03:07.931Z,18.58
2022-12-19T02:05:38.714Z,19.15
2022-12-19T02:08:06.200Z,19.00
2022-12-19T02:10:33.036Z,18.83
2022-12-19T02:12:59.963Z,19.50
2022-12-19T02:15:34.587Z,19.17
2022-12-19T02:18:17.106Z,19.27
2022-12-19T02:21:15.492Z,18.58
2022-12-19T02:24:11.181Z,19.35
2022-12-19T02:26:51.935Z,19.50
2022-12-19T02:29:49.848Z,18.35
2022-12-19T02:32:28.986Z,18.17
2022-12-19T02:35:05.190Z,19.33
2022-12-19T02:37:38.565Z,20.10
2022-12-19T02:40:19.943Z,19.65
2022-12-19T02:42:51.926Z,19.90
2022-12-19T02:45:22.027Z,19.23
2022-12-19T02:47:57.597Z,20.25
2022-12-19T02:50:26.584Z,19.55
2022-12-19T02:52:53.447Z,18.70
2022-12-19T03:20:01.667Z,19.23
2022-12-19T03:22:28.625Z,21.20
2022-12-19T03:24:55.572Z,21.30
2022-12-19T03:27:28.964Z,22.10
2022-12-19T03:30:03.641Z,21.20
2022-12-19T03:32:32.399Z,19.60
2022-12-19T03:35:08.418Z,20.40
2022-12-19T03:37:40.829Z,19.65
2022-12-19T03:40:15.888Z,19.52
2022-12-19T03:43:03.451Z,20.23
2022-12-19T03:46:20.164Z,18.30
2022-12-19T03:48:49.983Z,19.77
2022-12-19T03:51:22.594Z,20.38
2022-12-19T03:54:15.719Z,20.23
2022-12-19T03:56:49.540Z,20.92
2022-12-19T03:59:32.292Z,21.48
2022-12-19T04:02:00.360Z,21.58
2022-12-19T04:04:28.393Z,21.33
2022-12-19T04:06:56.636Z,20.67
2022-12-19T04:09:24.536Z,20.73
2022-12-19T04:12:07.474Z,20.73
2022-12-19T04:14:38.168Z,20.90
2022-12-19T04:17:29.018Z,20.75
2022-12-19T04:20:05.014Z,20.40
2022-12-19T04:22:56.186Z,20.05
2022-12-19T04:25:30.455Z,20.90
2022-12-19T04:28:06.357Z,19.73
2022-12-19T04:30:36.803Z,20.02
2022-12-19T04:33:04.858Z,20.10
2022-12-19T04:35:32.199Z,20.08
2022-12-19T04:37:59.195Z,20.88
2022-12-19T04:40:26.283Z,21.42
2022-12-19T04:42:53.349Z,19.80
2022-12-19T04:45:20.258Z,19.58
2022-12-19T04:47:47.378Z,19.02
2022-12-19T04:50:14.354Z,19.98
2022-12-19T04:52:41.302Z,20.80
2022-12-19T04:55:08.880Z,20.58
2022-12-19T04:57:35.834Z,20.45
2022-12-19T05:00:05.131Z,20.92
2022-12-19T05:02:32.495Z,20.35
2022-12-19T05:04:59.655Z,20.85
2022-12-19T05:07:26.434Z,19.42
2022-12-19T05:09:53.177Z,20.38
2022-12-19T05:12:20.009Z,21.95
2022-12-19T05:14:46.824Z,21.10
2022-12-19T05:17:13.884Z,21.02
2022-12-19T05:19:40.919Z,20.52
2022-12-19T05:22:07.819Z,19.63
2022-12-19T05:24:34.719Z,20.25
2022-12-19T05:27:01.631Z,19.60
2022-12-19T05:29:29.214Z,19.77
2022-12-19T05:31:56.477Z,20.05
2022-12-19T05:34:24.861Z,21.20
2022-12-19T05:36:51.763Z,20.50
2022-12-19T05:39:18.945Z,19.58
2022-12-19T05:41:48.934Z,20.23
2022-12-19T05:44:16.263Z,20.50
2022-12-19T05:54:56.787Z,20.40
2022-12-19T05:57:24.276Z,20.35
2022-12-19T05:59:51.329Z,20.67
2022-12-19T06:02:18.253Z,20.08
2022-12-19T06:04:45.135Z,20.52
2022-12-19T06:07:13.474Z,20.40
2022-12-19T06:09:43.335Z,20.73
2022-12-19T06:12:11.179Z,20.00
2022-12-19T06:14:38.079Z,20.52
2022-12-19T06:17:04.966Z,21.13
2022-12-19T06:19:32.045Z,20.98
2022-12-19T06:21:59.230Z,20.20
2022-12-19T06:24:26.511Z,21.55
2022-12-19T06:26:58.156Z,20.58
2022-12-19T06:29:25.116Z,20.30
2022-12-19T06:31:52.158Z,21.23
2022-12-19T06:34:46.926Z,21.40
2022-12-19T06:37:08.246Z,20.05
2022-12-19T06:39:35.481Z,20.38
2022-12-19T06:42:20.902Z,20.27
2022-12-19T06:44:47.771Z,19.60
2022-12-19T06:47:14.617Z,19.73
2022-12-19T06:49:41.569Z,20.60
2022-12-19T06:52:09.361Z,20.95
2022-12-19T08:56:35.601Z,20.00
2022-12-19T08:59:02.518Z,21.27
2022-12-19T09:01:29.848Z,20.90
2022-12-19T09:05:48.957Z,22.15
2022-12-19T09:06:47.450Z,21.50
2022-12-19T09:09:14.381Z,21.13
2022-12-19T09:11:47.543Z,21.70
2022-12-19T09:14:15.697Z,20.48
2022-12-19T09:16:48.527Z,21.98
2022-12-19T09:19:16.582Z,22.42
2022-12-19T09:21:43.857Z,22.08
2022-12-19T09:24:11.250Z,21.20
2022-12-19T09:26:42.297Z,20.27
2022-12-19T09:29:19.600Z,20.98
2022-12-19T09:31:50.020Z,21.08
2022-12-19T09:34:37.833Z,20.87
2022-12-19T09:37:15.158Z,21.42
2022-12-19T09:39:43.501Z,21.83
2022-12-19T09:42:23.671Z,20.77
2022-12-19T09:45:31.191Z,19.77
2022-12-19T09:48:00.612Z,21.27
2022-12-19T09:50:30.668Z,21.13
2022-12-19T09:53:09.259Z,21.67
2022-12-19T10:13:22.633Z,21.50
2022-12-19T10:16:03.522Z,21.10
2022-12-19T10:18:45.549Z,21.33
2022-12-19T10:22:15.586Z,22.55
2022-12-19T10:24:55.276Z,22.10
2022-12-19T10:28:20.979Z,21.38
2022-12-19T10:31:12.486Z,20.85
2022-12-19T10:33:47.568Z,21.27
2022-12-19T10:36:15.713Z,22.00
2022-12-19T10:38:57.965Z,20.73
2022-12-19T10:41:28.368Z,21.30
2022-12-19T10:44:02.589Z,22.10
2022-12-19T10:47:01.732Z,22.45
2022-12-19T10:49:31.456Z,21.23
2022-12-19T10:52:04.991Z,22.35
2022-12-19T10:54:39.457Z,21.27
2022-12-19T10:57:18.742Z,23.02
2022-12-19T11:00:11.751Z,21.55
2022-12-19T11:02:38.779Z,21.60
2022-12-19T11:05:21.361Z,20.42
2022-12-19T11:08:20.708Z,21.23
2022-12-19T11:12:28.601Z,21.20
2022-12-19T11:18:09.797Z,21.80
2022-12-19T11:22:15.082Z,21.13
2022-12-19T11:29:25.474Z,22.30
2022-12-19T11:29:42.454Z,22.85
2022-12-19T11:30:09.926Z,21.67
2022-12-19T11:30:39.551Z,22.45
2022-12-19T11:34:06.625Z,21.67
2022-12-19T11:37:07.023Z,21.08
2022-12-19T11:39:40.629Z,21.95
2022-12-19T11:42:25.146Z,20.65
2022-12-19T11:45:20.650Z,21.30
2022-12-19T11:48:03.356Z,21.85
2022-12-19T11:50:39.060Z,22.35
2022-12-19T11:53:19.444Z,22.60
2022-12-19T11:56:16.401Z,21.30
2022-12-19T11:59:02.353Z,20.75
2022-12-19T12:01:43.692Z,20.42
2022-12-19T12:04:25.496Z,21.30
2022-12-19T12:06:55.017Z,21.83
2022-12-19T12:14:34.341Z,21.85
2022-12-19T12:21:15.843Z,22.33
2022-12-19T12:26:23.098Z,21.88
2022-12-19T12:28:29.835Z,22.20
2022-12-19T12:31:01.689Z,22.10
2022-12-19T12:32:02.264Z,21.90
2022-12-19T12:32:03.521Z,21.27
2022-12-19T12:35:52.285Z,21.92
2022-12-19T12:40:54.040Z,22.10
2022-12-19T12:43:38.650Z,22.90
2022-12-19T12:46:12.215Z,22.35
2022-12-19T12:49:11.025Z,22.63
2022-12-19T12:51:38.595Z,22.05
2022-12-19T12:54:10.267Z,22.13
2022-12-19T12:56:38.362Z,22.48
2022-12-19T12:59:22.090Z,23.48
2022-12-19T13:01:58.971Z,21.85
2022-12-19T13:04:28.408Z,22.65
2022-12-19T13:07:16.027Z,23.65
2022-12-19T13:09:43.861Z,21.75
2022-12-19T13:12:46.532Z,22.15
2022-12-19T13:15:22.416Z,23.27
2022-12-19T13:17:49.412Z,22.20
2022-12-19T13:20:27.575Z,22.52
2022-12-19T13:22:58.146Z,23.13
2022-12-19T13:25:33.877Z,22.63
2022-12-19T13:28:03.748Z,22.73
2022-12-19T13:30:45.954Z,22.15
2022-12-19T13:33:20.387Z,21.42
2022-12-19T13:38:16.021Z,23.17
2022-12-19T13:39:59.970Z,22.60
2022-12-19T13:41:59.924Z,23.13
2022-12-19T13:44:30.109Z,24.25
2022-12-19T13:46:57.034Z,23.35
2022-12-19T13:49:34.601Z,23.75
2022-12-19T13:52:03.533Z,25.35
2022-12-19T13:54:51.683Z,24.92
2022-12-19T13:57:31.240Z,24.00
2022-12-19T14:00:02.039Z,23.02
2022-12-19T14:02:45.087Z,22.90
2022-12-19T14:05:34.023Z,22.55
2022-12-19T14:08:20.388Z,22.17
2022-12-19T14:11:38.765Z,22.60
2022-12-19T14:14:15.109Z,22.15
2022-12-19T14:16:45.967Z,24.55
2022-12-19T14:19:22.420Z,23.27
2022-12-19T14:22:05.276Z,23.85
2022-12-19T14:24:36.259Z,22.80
2022-12-19T14:28:18.784Z,23.55
2022-12-19T14:30:28.005Z,23.10
2022-12-19T14:33:40.997Z,22.70
2022-12-19T14:36:11.336Z,23.08
2022-12-19T14:39:23.220Z,22.77
2022-12-19T14:41:46.971Z,27.67
2022-12-19T14:53:08.627Z,26.80
2022-12-19T14:54:08.901Z,25.38
2022-12-19T14:54:13.937Z,23.95
2022-12-19T14:54:37.068Z,24.33
2022-12-19T14:56:31.073Z,23.25
2022-12-19T14:59:00.607Z,25.70
2022-12-19T15:01:34.157Z,28.33
2022-12-19T15:04:47.968Z,26.52
2022-12-19T15:07:06.900Z,27.25
2022-12-19T15:11:11.024Z,25.98
2022-12-19T15:14:49.589Z,25.08
2022-12-19T15:15:59.641Z,25.42
2022-12-19T15:18:33.219Z,26.13
2022-12-19T15:26:02.670Z,26.48
2022-12-19T15:28:24.772Z,25.92
2022-12-19T15:31:06.901Z,27.17
2022-12-19T15:33:33.935Z,25.67
2022-12-19T15:36:01.276Z,24.88
2022-12-19T15:38:28.531Z,25.10
2022-12-19T15:40:55.595Z,26.27
2022-12-19T15:44:01.804Z,27.27
2022-12-19T15:46:12.396Z,34.72
2022-12-19T15:48:47.943Z,29.73
2022-12-19T15:51:17.162Z,27.40
2022-12-19T15:53:44.629Z,28.67
2022-12-19T15:56:35.422Z,26.00
2022-12-19T15:59:03.909Z,25.85
2022-12-19T16:01:33.242Z,25.55
2022-12-19T16:04:01.484Z,25.73
2022-12-19T16:06:29.501Z,26.77
2022-12-19T16:08:56.680Z,27.05
2022-12-19T16:11:24.887Z,26.77
2022-12-19T16:13:55.616Z,26.45
2022-12-19T16:16:23.446Z,25.77
2022-12-19T16:18:50.590Z,25.98
2022-12-19T16:21:31.460Z,25.30
2022-12-19T16:24:01.513Z,25.98
2022-12-19T16:26:33.496Z,25.67
2022-12-19T16:29:01.410Z,24.30
2022-12-19T16:31:29.022Z,26.13
2022-12-19T16:33:56.179Z,26.90
2022-12-19T16:36:23.555Z,25.60
2022-12-19T16:38:50.686Z,25.13
2022-12-19T16:41:25.642Z,25.13
2022-12-19T16:43:53.184Z,25.10
2022-12-19T16:46:23.615Z,26.42
2022-12-19T16:48:51.272Z,25.55
2022-12-19T16:51:21.735Z,26.17
2022-12-19T16:53:50.722Z,28.65
2022-12-19T16:56:34.072Z,46.47
2022-12-19T16:59:06.423Z,30.58
2022-12-19T17:01:34.566Z,27.98
2022-12-19T17:04:01.466Z,28.30
2022-12-19T17:06:28.530Z,27.15
2022-12-19T17:08:55.628Z,26.52
2022-12-19T17:11:25.225Z,28.05
2022-12-19T17:14:00.648Z,27.50
2022-12-19T17:16:29.085Z,28.38
2022-12-19T17:18:58.451Z,28.15
2022-12-19T17:21:25.613Z,27.10
2022-12-19T17:23:53.160Z,25.55
2022-12-19T17:26:20.217Z,27.08
2022-12-19T17:28:50.561Z,26.25
2022-12-19T17:31:27.541Z,26.42
2022-12-19T17:33:56.454Z,26.58
2022-12-19T17:36:32.717Z,26.48
2022-12-19T17:39:02.329Z,25.98
2022-12-19T17:41:29.406Z,25.65
2022-12-19T17:43:56.478Z,25.67
2022-12-19T17:46:24.631Z,26.80
2022-12-19T17:48:53.309Z,26.30
2022-12-19T17:51:23.654Z,27.08
2022-12-19T17:53:51.446Z,27.67
2022-12-19T17:56:21.554Z,27.25
2022-12-19T17:58:51.471Z,26.90
2022-12-19T18:01:23.253Z,26.67
2022-12-19T18:03:52.832Z,26.30
2022-12-19T18:06:20.625Z,26.90
2022-12-19T18:08:48.155Z,27.17
2022-12-19T18:11:24.539Z,27.35
2022-12-19T18:13:52.410Z,25.67
2022-12-19T18:16:24.520Z,25.45
2022-12-19T18:18:51.702Z,27.42
2022-12-19T18:21:22.166Z,26.38
2022-12-19T18:23:49.508Z,26.17
2022-12-19T18:26:17.156Z,26.17
2022-12-19T18:28:44.367Z,26.67
2022-12-19T18:31:18.005Z,26.65
2022-12-19T18:33:47.835Z,27.85
2022-12-19T18:36:27.914Z,27.95
2022-12-19T18:38:56.799Z,28.02
2022-12-19T18:41:24.854Z,28.40
2022-12-19T18:43:52.308Z,28.45
2022-12-19T18:46:27.091Z,27.85
2022-12-19T18:48:54.521Z,27.08
2022-12-19T18:51:23.476Z,26.25
2022-12-19T18:53:51.191Z,27.85
2022-12-19T18:56:18.309Z,27.00
2022-12-19T18:58:45.530Z,26.52
2022-12-19T19:01:20.530Z,28.77
2022-12-19T19:03:59.371Z,26.50
2022-12-19T19:06:34.264Z,26.92
2022-12-19T19:09:06.363Z,28.17
2022-12-19T19:11:33.459Z,28.85
2022-12-19T19:14:00.418Z,27.75
2022-12-19T19:16:27.978Z,27.63
2022-12-19T19:18:56.847Z,27.02
2022-12-19T19:21:27.186Z,28.30
2022-12-19T19:24:16.094Z,27.67
2022-12-19T19:26:42.991Z,29.63
2022-12-19T19:29:10.036Z,28.75
2022-12-19T19:31:40.020Z,27.90
2022-12-19T19:34:15.402Z,29.05
2022-12-19T19:36:47.252Z,28.83
2022-12-19T19:39:14.418Z,28.30
2022-12-19T19:41:41.489Z,27.20
2022-12-19T19:44:08.447Z,28.35
2022-12-19T19:46:37.119Z,27.98
2022-12-19T19:49:04.335Z,28.48
2022-12-19T19:51:31.380Z,29.15
2022-12-19T19:53:58.741Z,27.92
2022-12-19T19:56:25.650Z,26.95
2022-12-19T19:58:52.804Z,27.10
2022-12-19T20:01:19.811Z,27.20
2022-12-19T20:03:48.636Z,26.63
2022-12-19T20:06:16.135Z,26.63
2022-12-19T20:08:43.139Z,27.05
2022-12-19T20:11:10.746Z,27.77
2022-12-19T20:13:38.304Z,26.85
2022-12-19T20:16:16.266Z,28.52
2022-12-19T20:18:48.816Z,29.08
2022-12-19T20:21:15.768Z,27.38
2022-12-19T20:23:43.630Z,27.10
2022-12-19T20:26:11.676Z,27.35
2022-12-19T20:28:47.425Z,27.90
2022-12-19T20:31:16.460Z,29.13
2022-12-19T20:33:43.527Z,29.40
